Αναφορές Αεροδρομίων

 

KSJC - San Jose, California, USA
Distance from station: ΒΑ 14km
Ενημερώθηκε: 27/02/2021 21:53
Αίθριος
Αίθριος
 Ανεμος από ΔΒΔ
Ανεμος: ΔΒΔ 22 km/h
Θερμοκρασία: 14°C
Σημείο Δρόσου: -1°C
Υγρασία: 36%
Βαρόμετρο: 1022 hPa
Clouds: Αίθριος
Visibility: 16 km
2021/02/27 19:53 KSJC 271953Z 30012KT 10SM CLR 14/M01 A3018 RMK AO2 SLP220 T01441011
KNUQ - Moffett Nas/Mtn, California, USA
Distance from station: Β 14km
Ενημερώθηκε: 27/02/2021 22:30
Αίθριος
Αίθριος
 Ανεμος από ΒΔ
Ανεμος: ΒΔ 17 km/h, Ριπή: 28 km/h
Θερμοκρασία: 14°C
Σημείο Δρόσου: -1°C
Υγρασία: 36%
Βαρόμετρο: 1022 hPa
Clouds: Αίθριος
Visibility: 16 km
2021/02/27 20:30 KNUQ 272030Z AUTO 32009G15KT 10SM CLR 14/M01 A3018 RMK AO2
 
KPAO - Palo Alto, California, USA
Distance from station: ΒΒΔ 23km
Ενημερώθηκε: 27/02/2021 20:47
NOT Current
Αίθριος
Αίθριος
 Ανεμος από ΒΔ
Ανεμος: ΒΔ 19 km/h
Θερμοκρασία: 12°C
Σημείο Δρόσου: 1°C
Υγρασία: 47%
Βαρόμετρο: 1023.4 hPa
Clouds: Αίθριος
Visibility: 16 km
2021/02/27 18:47 KPAO 271847Z 32010KT 10SM SKC 12/01 A3022
KRHV - San Jose/Reid, California, USA
Distance from station: ΑΒΑ 19km
Ενημερώθηκε: 27/02/2021 22:47
Αίθριος
Αίθριος
 Ανεμος από ΒΔ
Ανεμος: ΒΔ 19 km/h
Θερμοκρασία: 15°C
Σημείο Δρόσου: 1°C
Υγρασία: 39%
Βαρόμετρο: 1021.3 hPa
Clouds: Αίθριος
Visibility: 16 km
2021/02/27 20:47 KRHV 272047Z 32010KT 10SM SKC 15/01 A3016
 
KOAK - Oakland, California, USA
Distance from station: ΒΒΔ 50km
Ενημερώθηκε: 27/02/2021 21:53
Αίθριος
Αίθριος
 Ανεμος από ΔΒΔ
Ανεμος: ΔΒΔ 31 km/h
Θερμοκρασία: 16°C
Σημείο Δρόσου: 1°C
Υγρασία: 36%
Βαρόμετρο: 1022.7 hPa
Clouds: Αίθριος
Visibility: 16 km
2021/02/27 19:53 KOAK 271953Z 30017KT 10SM CLR 16/01 A3020 RMK AO2 SLP228 T01610006
KSQL - San Carlos Airpo, California, USA
Distance from station: ΒΔ 34km
Ενημερώθηκε: 27/02/2021 21:55

 Ανεμος από ΒΔ
Ανεμος: ΒΔ 20 km/h
Θερμοκρασία: 14°C
Σημείο Δρόσου: 3°C
Υγρασία: 48%
Βαρόμετρο: 1022.7 hPa
Visibility: 16 km
2021/02/27 19:55 KSQL 271955Z 320011KT 10SM 14/03 A3020
 
KSFO - San Francisco, California, USA
Distance from station: ΒΔ 49km
Ενημερώθηκε: 27/02/2021 22:27
Αίθριος
Αίθριος
 Ανεμος από ΔΒΔ
Ανεμος: ΔΒΔ 20 km/h
Θερμοκρασία: 16°C
Σημείο Δρόσου: 2°C
Υγρασία: 39%
Βαρόμετρο: 1022.4 hPa
Clouds: Αίθριος
Visibility: 16 km
2021/02/27 20:27 KSFO 272027Z 29011KT 10SM CLR 16/02 A3019 RMK AO2 WSHFT 2012 T01560017 $
KE16 - San Martin, California, USA
Distance from station: ΑΝΑ 43km
Ενημερώθηκε: 27/02/2021 22:35
Αίθριος
Αίθριος
 Ανεμος από ΒΔ
Ανεμος: ΒΔ 28 km/h, Ριπή: 43 km/h
Θερμοκρασία: 15°C
Σημείο Δρόσου: -1°C
Υγρασία: 34%
Βαρόμετρο: 1020.7 hPa
Clouds: Αίθριος
Visibility: 16 km
2021/02/27 20:35 KE16 272035Z AUTO 31015G23KT 10SM CLR 15/M01 A3014 RMK AO2
 
KWVI - Watsonville, California, USA
Distance from station: ΝΝΑ 44km
Ενημερώθηκε: 27/02/2021 21:53
Αίθριος
Αίθριος
 Ανεμος από Ν
Ανεμος: Ν 13 km/h
Θερμοκρασία: 14°C
Σημείο Δρόσου: 4°C
Υγρασία: 51%
Βαρόμετρο: 1021 hPa
Clouds: Αίθριος
Visibility: 16 km
2021/02/27 19:53 KWVI 271953Z AUTO 19007KT 10SM CLR 14/04 A3015 RMK AO2 SLP210 T01440044
KHAF - Half Moon Bay, California, USA
Distance from station: ΔΒΔ 50km
Ενημερώθηκε: 27/02/2021 22:35
Haze, Αίθριος
Haze, Αίθριος
 Ανεμος από ΒΒΔ
Ανεμος: ΒΒΔ 30 km/h, Ριπή: 43 km/h
Θερμοκρασία: 12°C
Σημείο Δρόσου: 5°C
Υγρασία: 63%
Βαρόμετρο: 1022.7 hPa
Περίληψη: Haze
Clouds: Αίθριος
Visibility: 8 km
2021/02/27 20:35 KHAF 272035Z AUTO 34016G23KT 5SM HZ CLR 12/05 A3020 RMK AO2
 
KHWD - Hayward, California, USA
Distance from station: Β 44km
Ενημερώθηκε: 27/02/2021 21:54
Αίθριος
Αίθριος
 Ανεμος από ΔΒΔ
Ανεμος: ΔΒΔ 24 km/h
Θερμοκρασία: 15°C
Σημείο Δρόσου: 1°C
Υγρασία: 39%
Βαρόμετρο: 1022 hPa
Clouds: Αίθριος
Visibility: 16 km
2021/02/27 19:54 KHWD 271954Z 29013KT 10SM CLR 15/01 A3018 RMK AO2 SLP230 T01500011
KLVK - Livermore, California, USA
Distance from station: ΒΒΑ 51km
Ενημερώθηκε: 27/02/2021 21:53
Αίθριος
Αίθριος
 Ανεμος από ΒΒΑ
Ανεμος: ΒΒΑ 17 km/h
Θερμοκρασία: 14°C
Σημείο Δρόσου: -3°C
Υγρασία: 31%
Βαρόμετρο: 1022 hPa
Clouds: Αίθριος
Visibility: 16 km
2021/02/27 19:53 KLVK 271953Z 02009KT 10SM CLR 14/M03 A3018 RMK AO2 SLP217 T01441033